createdAt,value
2022-10-21T00:00:43.510Z,158.23
2022-10-21T00:03:10.852Z,159.98
2022-10-21T00:05:38.090Z,162.93
2022-10-21T00:08:05.499Z,163.30
2022-10-21T00:10:32.814Z,163.40
2022-10-21T00:13:00.577Z,162.88
2022-10-21T00:15:28.013Z,163.13
2022-10-21T00:17:55.387Z,162.00
2022-10-21T00:22:54.917Z,160.88
2022-10-21T00:25:22.199Z,161.77
2022-10-21T00:27:49.553Z,162.30
2022-10-21T00:30:16.851Z,162.48
2022-10-21T00:32:44.242Z,162.15
2022-10-21T00:35:11.923Z,161.30
2022-10-21T00:37:39.527Z,160.48
2022-10-21T00:40:07.514Z,160.40
2022-10-21T00:42:42.164Z,159.77
2022-10-21T00:45:19.453Z,160.63
2022-10-21T00:47:51.949Z,160.85
2022-10-21T00:50:42.440Z,160.60
2022-10-21T00:53:16.019Z,161.50
2022-10-21T00:55:53.400Z,162.73
2022-10-21T00:58:24.908Z,162.10
2022-10-21T01:00:56.332Z,162.63
2022-10-21T01:03:28.316Z,161.65
2022-10-21T01:05:57.873Z,161.40
2022-10-21T01:08:25.947Z,160.90
2022-10-21T01:10:53.848Z,159.90
2022-10-21T01:13:58.625Z,159.35
2022-10-21T01:16:54.408Z,160.95
2022-10-21T01:19:21.781Z,159.75
2022-10-21T01:22:12.509Z,160.98
2022-10-21T01:24:47.981Z,160.68
2022-10-21T01:27:36.123Z,161.40
2022-10-21T01:30:09.606Z,162.30
2022-10-21T01:32:51.540Z,163.10
2022-10-21T01:35:24.509Z,161.95
2022-10-21T01:38:30.206Z,162.30
2022-10-21T01:41:09.654Z,162.02
2022-10-21T01:43:49.213Z,160.85
2022-10-21T01:46:24.864Z,162.63
2022-10-21T01:49:12.495Z,160.98
2022-10-21T01:51:40.618Z,161.73
2022-10-21T01:54:14.325Z,162.32
2022-10-21T01:56:44.174Z,163.15
2022-10-21T01:59:14.420Z,163.05
2022-10-21T02:01:44.097Z,163.15
2022-10-21T02:04:14.324Z,162.68
2022-10-21T02:06:41.694Z,163.60
2022-10-21T02:09:09.016Z,164.00
2022-10-21T02:11:39.179Z,164.05
2022-10-21T02:14:16.936Z,163.02
2022-10-21T02:16:45.666Z,166.70
2022-10-21T02:19:18.979Z,165.27
2022-10-21T02:24:43.390Z,165.60
2022-10-21T02:27:10.948Z,164.80
2022-10-21T02:29:42.169Z,165.30
2022-10-21T02:32:24.577Z,167.20
2022-10-21T02:35:25.489Z,164.05
2022-10-21T02:38:29.883Z,165.80
2022-10-21T02:41:08.058Z,166.13
2022-10-21T02:43:44.054Z,166.52
2022-10-21T02:46:13.988Z,163.52
2022-10-21T02:48:45.546Z,164.80
2022-10-21T02:51:13.909Z,166.57
2022-10-21T02:53:41.804Z,165.02
2022-10-21T02:56:09.544Z,168.95
2022-10-21T02:58:37.180Z,169.25
2022-10-21T03:01:05.209Z,167.25
2022-10-21T03:03:32.610Z,167.60
2022-10-21T03:05:59.955Z,165.80
2022-10-21T03:08:27.466Z,168.13
2022-10-21T03:10:54.909Z,166.13
2022-10-21T03:13:23.190Z,167.57
2022-10-21T03:15:51.440Z,169.50
2022-10-21T03:18:18.832Z,167.00
2022-10-21T03:20:50.304Z,168.70
2022-10-21T03:23:21.245Z,167.20
2022-10-21T03:25:49.023Z,167.77
2022-10-21T03:28:18.317Z,167.90
2022-10-21T03:30:45.726Z,168.23
2022-10-21T03:33:12.930Z,168.15
2022-10-21T03:35:40.430Z,170.15
2022-10-21T03:38:08.020Z,168.05
2022-10-21T03:40:35.287Z,168.20
2022-10-21T03:43:02.889Z,168.15
2022-10-21T03:45:30.311Z,169.27
2022-10-21T03:47:57.563Z,166.30
2022-10-21T03:50:26.630Z,168.25
2022-10-21T03:52:54.684Z,168.95
2022-10-21T03:55:24.316Z,166.90
2022-10-21T03:57:52.683Z,170.85
2022-10-21T04:00:20.821Z,168.02
2022-10-21T04:02:48.215Z,169.32
2022-10-21T04:05:15.711Z,167.40
2022-10-21T04:07:43.206Z,166.77
2022-10-21T04:10:11.120Z,167.75
2022-10-21T04:12:38.749Z,169.60
2022-10-21T04:15:07.591Z,170.27
2022-10-21T04:17:35.039Z,170.75
2022-10-21T04:20:02.356Z,169.80
2022-10-21T04:22:29.695Z,168.98
2022-10-21T04:24:59.697Z,171.73
2022-10-21T04:27:29.633Z,170.15
2022-10-21T04:29:56.865Z,170.77
2022-10-21T04:32:24.235Z,170.18
2022-10-21T04:34:51.536Z,170.10
2022-10-21T04:37:19.144Z,171.30
2022-10-21T04:39:46.372Z,170.60
2022-10-21T04:42:13.861Z,173.45
2022-10-21T04:44:41.166Z,171.38
2022-10-21T04:47:08.483Z,172.38
2022-10-21T04:49:35.741Z,171.45
2022-10-21T04:52:03.076Z,170.57
2022-10-21T04:54:30.382Z,171.30
2022-10-21T04:56:57.669Z,171.50
2022-10-21T04:59:24.947Z,171.80
2022-10-21T05:01:52.499Z,171.60
2022-10-21T05:04:19.888Z,171.73
2022-10-21T05:06:47.243Z,168.85
2022-10-21T05:09:14.698Z,170.45
2022-10-21T05:11:42.138Z,169.10
2022-10-21T05:14:09.376Z,170.07
2022-10-21T05:16:36.749Z,170.95
2022-10-21T05:19:04.061Z,170.75
2022-10-21T05:21:31.407Z,171.30
2022-10-21T05:23:58.677Z,173.32
2022-10-21T05:26:26.199Z,171.35
2022-10-21T05:28:53.734Z,171.88
2022-10-21T05:31:21.084Z,170.07
2022-10-21T05:33:48.353Z,170.98
2022-10-21T05:36:17.556Z,170.80
2022-10-21T05:38:46.897Z,172.35
2022-10-21T05:41:16.494Z,171.98
2022-10-21T05:43:44.246Z,171.32
2022-10-21T05:46:11.675Z,170.85
2022-10-21T05:48:39.072Z,171.27
2022-10-21T05:51:08.500Z,170.50
2022-10-21T05:53:35.850Z,171.13
2022-10-21T05:56:08.148Z,171.05
2022-10-21T05:58:36.583Z,172.00
2022-10-21T06:01:04.012Z,170.65
2022-10-21T06:03:33.535Z,171.25
2022-10-21T06:06:02.510Z,172.07
2022-10-21T06:08:32.078Z,174.35
2022-10-21T06:11:08.534Z,172.35
2022-10-21T06:13:36.175Z,172.95
2022-10-21T06:21:05.007Z,168.18
2022-10-21T06:23:32.624Z,175.07
2022-10-21T06:26:06.248Z,169.13
2022-10-21T06:28:36.290Z,169.95
2022-10-21T06:31:04.411Z,172.98
2022-10-21T06:33:32.351Z,176.65
2022-10-21T06:36:00.244Z,174.77
2022-10-21T06:38:27.780Z,173.48
2022-10-21T06:41:09.223Z,175.65
2022-10-21T06:43:39.987Z,176.23
2022-10-21T06:46:10.958Z,174.25
2022-10-21T06:48:38.640Z,176.07
2022-10-21T06:51:17.783Z,176.73
2022-10-21T06:53:45.853Z,176.48
2022-10-21T06:56:18.016Z,176.70
2022-10-21T06:58:48.214Z,175.98
2022-10-21T07:01:34.673Z,180.32
2022-10-21T07:04:10.628Z,176.80
2022-10-21T07:06:38.305Z,175.32
2022-10-21T07:09:06.951Z,177.25
2022-10-21T07:11:34.362Z,177.60
2022-10-21T07:14:02.029Z,176.60
2022-10-21T07:16:31.898Z,172.85
2022-10-21T07:18:59.382Z,172.82
2022-10-21T07:21:28.674Z,170.90
2022-10-21T07:23:59.326Z,170.38
2022-10-21T07:26:30.255Z,166.20
2022-10-21T07:28:59.809Z,169.32
2022-10-21T07:31:28.291Z,166.88
2022-10-21T07:33:56.057Z,168.95
2022-10-21T07:36:26.828Z,167.45
2022-10-21T07:38:56.015Z,169.95
2022-10-21T07:41:29.559Z,169.93
2022-10-21T07:43:58.204Z,170.23
2022-10-21T07:46:25.617Z,175.82
2022-10-21T07:48:53.124Z,178.43
2022-10-21T07:51:25.734Z,165.35
2022-10-21T07:53:58.741Z,179.60
2022-10-21T07:56:29.212Z,182.43
2022-10-21T07:58:56.606Z,180.57
2022-10-21T08:01:24.269Z,181.20
2022-10-21T08:03:53.636Z,179.80
2022-10-21T08:06:23.225Z,177.43
2022-10-21T08:08:51.050Z,179.60
2022-10-21T08:11:27.093Z,177.38
2022-10-21T08:13:55.701Z,176.35
2022-10-21T08:16:23.522Z,175.60
2022-10-21T08:18:51.617Z,177.07
2022-10-21T08:21:19.325Z,173.43
2022-10-21T08:23:46.709Z,175.25
2022-10-21T08:26:16.197Z,172.70
2022-10-21T08:28:44.374Z,175.27
2022-10-21T08:31:21.572Z,171.68
2022-10-21T08:33:49.686Z,176.50
2022-10-21T08:36:20.249Z,174.65
2022-10-21T08:38:48.621Z,177.30
2022-10-21T08:41:31.065Z,177.10
2022-10-21T08:44:06.756Z,172.85
2022-10-21T08:46:43.560Z,174.77
2022-10-21T08:49:28.529Z,169.27
2022-10-21T08:52:04.863Z,164.80
2022-10-21T08:54:45.139Z,158.13
2022-10-21T08:57:12.933Z,162.88
2022-10-21T08:59:43.049Z,171.73
2022-10-21T09:02:13.045Z,164.77
2022-10-21T09:05:04.481Z,169.25
2022-10-21T09:07:53.328Z,161.82
2022-10-21T09:10:57.913Z,164.77
2022-10-21T09:13:37.887Z,171.80
2022-10-21T09:16:30.876Z,177.32
2022-10-21T09:19:17.008Z,177.05
2022-10-21T09:22:05.870Z,177.75
2022-10-21T09:25:23.189Z,178.40
2022-10-21T09:27:55.932Z,176.88
2022-10-21T09:30:25.565Z,177.90
2022-10-21T09:32:58.271Z,176.90
2022-10-21T09:35:37.104Z,177.65
2022-10-21T09:38:22.415Z,176.55
2022-10-21T09:40:59.322Z,176.57
2022-10-21T09:43:27.723Z,173.75
2022-10-21T09:45:55.170Z,175.75
2022-10-21T09:48:46.109Z,175.65
2022-10-21T09:51:31.191Z,175.35
2022-10-21T09:54:13.751Z,179.98
2022-10-21T09:56:50.144Z,170.27
2022-10-21T09:59:19.693Z,173.02
2022-10-21T10:01:49.312Z,172.10
2022-10-21T10:04:33.317Z,174.13
2022-10-21T10:07:20.334Z,176.07
2022-10-21T10:09:48.918Z,170.13
2022-10-21T10:12:21.096Z,176.20
2022-10-21T10:14:48.671Z,173.95
2022-10-21T10:17:37.269Z,171.05
2022-10-21T10:20:04.714Z,173.80
2022-10-21T10:22:59.531Z,166.15
2022-10-21T10:25:36.216Z,166.80
2022-10-21T10:28:08.161Z,165.40
2022-10-21T10:30:48.221Z,168.63
2022-10-21T10:33:23.744Z,169.23
2022-10-21T10:35:54.512Z,170.73
2022-10-21T10:38:25.913Z,169.13
2022-10-21T10:40:56.337Z,172.57
2022-10-21T10:43:31.974Z,173.25
2022-10-21T10:46:05.345Z,176.98
2022-10-21T10:51:07.752Z,175.48
2022-10-21T10:53:39.166Z,174.23
2022-10-21T10:56:20.930Z,179.95
2022-10-21T10:59:18.469Z,179.23
2022-10-21T11:02:08.900Z,178.48
2022-10-21T11:04:58.887Z,178.68
2022-10-21T11:07:35.522Z,178.52
2022-10-21T11:10:08.868Z,178.07
2022-10-21T11:12:36.264Z,177.75
2022-10-21T11:15:07.070Z,178.02
2022-10-21T11:17:45.875Z,178.85
2022-10-21T11:20:30.206Z,178.93
2022-10-21T11:23:00.714Z,179.40
2022-10-21T11:25:39.298Z,178.25
2022-10-21T11:28:25.772Z,176.90
2022-10-21T11:31:18.018Z,175.38
2022-10-21T11:34:11.434Z,177.38
2022-10-21T11:37:02.783Z,171.55
2022-10-21T11:40:07.517Z,172.60
2022-10-21T11:42:46.935Z,170.95
2022-10-21T11:45:32.081Z,172.57
2022-10-21T11:48:11.235Z,170.95
2022-10-21T11:50:48.728Z,171.95
2022-10-21T11:53:36.745Z,170.60
2022-10-21T11:56:25.464Z,172.02
2022-10-21T11:58:55.855Z,175.07
2022-10-21T12:01:32.430Z,174.50
2022-10-21T12:04:21.694Z,175.90
2022-10-21T12:06:55.247Z,173.63
2022-10-21T12:09:34.449Z,175.80
2022-10-21T12:12:05.602Z,174.30
2022-10-21T12:14:38.495Z,174.27
2022-10-21T12:17:11.074Z,172.65
2022-10-21T12:19:38.572Z,172.45
2022-10-21T12:22:07.722Z,170.40
2022-10-21T12:24:43.719Z,173.68
2022-10-21T12:27:11.066Z,173.20
2022-10-21T12:29:56.427Z,173.98
2022-10-21T12:32:30.744Z,175.27
2022-10-21T12:34:58.333Z,172.88
2022-10-21T12:37:46.605Z,173.27
2022-10-21T12:40:37.718Z,172.18
2022-10-21T12:43:28.765Z,173.60
2022-10-21T12:46:07.974Z,173.63
2022-10-21T12:48:44.064Z,174.60
2022-10-21T12:51:25.157Z,180.45
2022-10-21T12:53:56.485Z,177.45
2022-10-21T12:56:34.674Z,179.07
2022-10-21T12:59:06.413Z,176.48
2022-10-21T13:01:45.353Z,174.75
2022-10-21T13:04:35.969Z,176.95
2022-10-21T13:07:15.447Z,176.98
2022-10-21T13:09:44.268Z,177.20
2022-10-21T13:12:11.509Z,173.25
2022-10-21T13:14:49.596Z,175.95
2022-10-21T13:17:22.811Z,177.85
2022-10-21T13:20:14.194Z,175.05
2022-10-21T13:22:44.473Z,175.50
2022-10-21T13:25:41.239Z,175.13
2022-10-21T13:28:14.815Z,176.32
2022-10-21T13:30:51.010Z,179.25
2022-10-21T13:33:27.481Z,177.38
2022-10-21T13:36:01.314Z,175.90
2022-10-21T13:38:35.378Z,175.77
2022-10-21T13:41:17.220Z,175.02
2022-10-21T13:43:54.734Z,175.32
2022-10-21T13:46:28.892Z,176.20
2022-10-21T13:48:59.742Z,176.93
2022-10-21T13:51:30.438Z,177.48
2022-10-21T13:54:09.075Z,174.05
2022-10-21T13:56:38.362Z,178.60
2022-10-21T13:59:08.057Z,179.70
2022-10-21T14:01:49.602Z,178.63
2022-10-21T14:04:21.655Z,177.20
2022-10-21T14:06:57.902Z,176.43
2022-10-21T14:09:34.805Z,179.88
2022-10-21T14:12:05.457Z,180.93
2022-10-21T14:14:35.286Z,179.38
2022-10-21T14:17:08.353Z,177.77
2022-10-21T14:19:38.264Z,179.25
2022-10-21T14:24:34.848Z,180.95
2022-10-21T14:27:03.015Z,179.63
2022-10-21T14:29:33.330Z,177.55
2022-10-21T14:32:01.635Z,176.07
2022-10-21T14:34:34.931Z,177.13
2022-10-21T14:37:11.831Z,177.00
2022-10-21T14:39:39.819Z,174.85
2022-10-21T14:42:17.364Z,176.30
2022-10-21T14:44:45.946Z,177.80
2022-10-21T14:47:25.254Z,179.32
2022-10-21T14:49:55.621Z,177.00
2022-10-21T14:52:35.583Z,175.55
2022-10-21T14:55:08.659Z,177.13
2022-10-21T14:57:51.345Z,180.77
2022-10-21T15:00:29.052Z,177.82
2022-10-21T15:02:59.683Z,177.68
2022-10-21T15:05:30.025Z,176.60
2022-10-21T15:08:19.558Z,177.20
2022-10-21T15:11:12.174Z,176.02
2022-10-21T15:13:39.553Z,177.75
2022-10-21T15:16:21.331Z,178.52
2022-10-21T15:18:52.723Z,178.57
2022-10-21T15:21:38.013Z,175.93
2022-10-21T15:24:06.099Z,176.13
2022-10-21T15:26:39.884Z,177.82
2022-10-21T15:29:37.182Z,178.15
2022-10-21T15:32:06.175Z,178.15
2022-10-21T15:34:33.872Z,175.27
2022-10-21T15:37:01.616Z,177.27
2022-10-21T15:39:29.365Z,176.10
2022-10-21T15:41:58.631Z,179.05
2022-10-21T15:44:31.563Z,178.82
2022-10-21T15:47:02.623Z,177.73
2022-10-21T15:49:36.538Z,176.63
2022-10-21T15:52:07.244Z,179.15
2022-10-21T15:54:35.046Z,177.98
2022-10-21T15:57:11.704Z,177.65
2022-10-21T15:59:39.080Z,177.77
2022-10-21T16:02:16.495Z,172.43
2022-10-21T16:04:45.896Z,15.85
2022-10-21T16:07:29.077Z,8.02
2022-10-21T16:09:57.269Z,9.05
2022-10-21T16:12:25.130Z,6.72
2022-10-21T16:14:52.700Z,7.70
2022-10-21T16:17:20.559Z,4.80
2022-10-21T16:19:47.985Z,15.25
2022-10-21T16:22:21.152Z,11.63
2022-10-21T16:24:48.864Z,9.30
2022-10-21T16:27:31.265Z,11.88
2022-10-21T16:30:16.351Z,18.75
2022-10-21T16:32:43.800Z,9.00
2022-10-21T16:35:11.956Z,6.63
2022-10-21T16:37:41.177Z,5.13
2022-10-21T16:40:29.298Z,6.75
2022-10-21T16:42:56.916Z,7.20
2022-10-21T16:45:28.031Z,5.63
2022-10-21T16:47:58.400Z,8.73
2022-10-21T16:50:40.646Z,6.05
2022-10-21T16:53:16.283Z,3.42
2022-10-21T16:55:44.014Z,7.10
2022-10-21T16:58:11.534Z,5.95
2022-10-21T17:00:39.333Z,6.78
2022-10-21T17:03:07.192Z,5.18
2022-10-21T17:05:35.766Z,6.00
2022-10-21T17:08:03.199Z,6.90
2022-10-21T17:10:30.567Z,9.00
2022-10-21T17:12:59.369Z,7.22
2022-10-21T17:15:27.853Z,3.78
2022-10-21T17:17:55.118Z,3.67
2022-10-21T17:20:22.975Z,3.63
2022-10-21T17:22:50.543Z,5.53
2022-10-21T17:25:18.594Z,5.10
2022-10-21T17:27:46.220Z,9.40
2022-10-21T17:30:13.703Z,6.22
2022-10-21T17:35:19.559Z,5.22
2022-10-21T17:37:48.382Z,5.35
2022-10-21T17:40:28.362Z,5.75
2022-10-21T17:42:56.223Z,6.68
2022-10-21T17:45:23.588Z,5.90
2022-10-21T17:47:53.011Z,9.10
2022-10-21T17:50:23.832Z,4.70
2022-10-21T17:52:53.440Z,5.93
2022-10-21T17:55:21.520Z,5.78
2022-10-21T17:57:48.975Z,4.38
2022-10-21T18:00:16.603Z,4.35
2022-10-21T18:02:44.112Z,4.35
2022-10-21T18:05:11.513Z,5.35
2022-10-21T18:07:39.209Z,5.57
2022-10-21T18:10:08.238Z,5.90
2022-10-21T18:12:36.085Z,4.93
2022-10-21T18:15:04.136Z,5.10
2022-10-21T18:17:33.652Z,5.80
2022-10-21T18:20:00.911Z,5.70
2022-10-21T18:22:28.344Z,12.50
2022-10-21T18:24:55.677Z,9.32
2022-10-21T18:27:23.147Z,5.45
2022-10-21T18:29:50.391Z,4.50
2022-10-21T18:32:17.736Z,9.27
2022-10-21T18:34:45.127Z,5.13
2022-10-21T18:37:12.576Z,5.47
2022-10-21T18:39:40.287Z,5.50
2022-10-21T18:42:07.672Z,9.05
2022-10-21T18:44:35.033Z,7.40
2022-10-21T18:47:02.474Z,5.53
2022-10-21T18:49:29.833Z,7.82
2022-10-21T18:51:57.237Z,8.00
2022-10-21T18:54:24.594Z,6.28
2022-10-21T18:56:51.931Z,5.35
2022-10-21T18:59:19.305Z,5.90
2022-10-21T19:01:46.820Z,5.85
2022-10-21T19:04:14.881Z,4.30
2022-10-21T19:06:46.190Z,5.85
2022-10-21T19:09:22.815Z,9.10
2022-10-21T19:11:50.362Z,5.55
2022-10-21T19:14:18.239Z,7.90
2022-10-21T19:16:47.435Z,6.93
2022-10-21T19:19:16.274Z,7.03
2022-10-21T19:21:43.719Z,6.80
2022-10-21T19:24:11.514Z,5.93
2022-10-21T19:26:40.564Z,5.15
2022-10-21T19:29:16.730Z,6.45
2022-10-21T19:34:22.929Z,5.97
2022-10-21T19:36:50.522Z,4.93
2022-10-21T19:39:17.874Z,8.13
2022-10-21T19:41:45.487Z,7.15
2022-10-21T19:44:12.805Z,4.43
2022-10-21T19:46:40.255Z,6.45
2022-10-21T19:49:09.428Z,5.32
2022-10-21T19:51:37.246Z,4.47
2022-10-21T19:54:06.405Z,4.50
2022-10-21T19:56:35.293Z,6.35
2022-10-21T19:59:03.179Z,4.78
2022-10-21T20:01:31.596Z,5.00
2022-10-21T20:04:01.099Z,5.40
2022-10-21T20:06:34.196Z,5.93
2022-10-21T20:09:05.873Z,9.48
2022-10-21T20:11:33.766Z,7.30
2022-10-21T20:14:01.487Z,9.95
2022-10-21T20:16:31.267Z,7.28
2022-10-21T20:19:01.335Z,4.60
2022-10-21T20:21:31.247Z,3.92
2022-10-21T20:23:59.912Z,3.95
2022-10-21T20:26:29.012Z,6.15
2022-10-21T20:28:57.368Z,12.57
2022-10-21T20:31:24.900Z,45.63
2022-10-21T20:33:52.556Z,41.38
2022-10-21T20:36:22.791Z,20.27
2022-10-21T20:38:52.271Z,29.73
2022-10-21T20:41:22.619Z,48.67
2022-10-21T20:43:51.189Z,14.27
2022-10-21T20:46:20.667Z,12.90
2022-10-21T20:48:50.076Z,27.40
2022-10-21T20:51:20.242Z,12.48
2022-10-21T20:53:53.184Z,8.43
2022-10-21T20:56:20.986Z,8.15
2022-10-21T20:58:48.630Z,10.07
2022-10-21T21:01:20.161Z,6.72
2022-10-21T21:03:55.545Z,18.52
2022-10-21T21:06:23.491Z,9.50
2022-10-21T21:09:08.628Z,9.68
2022-10-21T21:11:39.276Z,3.78
2022-10-21T21:14:07.071Z,4.45
2022-10-21T21:16:34.637Z,4.53
2022-10-21T21:19:06.673Z,4.45
2022-10-21T21:21:35.729Z,11.27
2022-10-21T21:24:04.084Z,19.40
2022-10-21T21:26:38.863Z,24.42
2022-10-21T21:29:08.258Z,14.30
2022-10-21T21:31:37.428Z,14.15
2022-10-21T21:34:05.847Z,25.27
2022-10-21T21:36:33.363Z,27.58
2022-10-21T21:39:00.744Z,21.20
2022-10-21T21:41:29.093Z,19.85
2022-10-21T21:43:59.240Z,10.95
2022-10-21T21:46:26.993Z,10.52
2022-10-21T21:49:00.954Z,9.70
2022-10-21T21:51:31.296Z,19.33
2022-10-21T21:53:59.117Z,15.75
2022-10-21T21:56:28.155Z,15.18
2022-10-21T21:58:57.047Z,17.08
2022-10-21T22:01:26.664Z,21.75
2022-10-21T22:03:54.655Z,18.45
2022-10-21T22:08:57.455Z,15.02
2022-10-21T22:11:28.138Z,10.68
2022-10-21T22:13:55.556Z,15.95
2022-10-21T22:16:24.588Z,17.65
2022-10-21T22:18:52.314Z,10.82
2022-10-21T22:21:20.109Z,23.98
2022-10-21T22:23:48.931Z,20.17
2022-10-21T22:26:18.518Z,16.17
2022-10-21T22:28:46.273Z,14.23
2022-10-21T22:31:16.202Z,24.83
2022-10-21T22:33:44.922Z,20.30
2022-10-21T22:36:12.269Z,24.98
2022-10-21T22:38:39.638Z,18.67
2022-10-21T22:41:09.926Z,13.30
2022-10-21T22:43:39.949Z,179.48
2022-10-21T22:46:22.054Z,96.38
2022-10-21T22:48:54.752Z,14.88
2022-10-21T22:51:22.018Z,182.73
2022-10-21T22:53:53.604Z,184.02
2022-10-21T22:56:25.105Z,179.80
2022-10-21T22:58:52.574Z,162.25
2022-10-21T23:01:20.038Z,181.40
2022-10-21T23:03:47.313Z,184.40
2022-10-21T23:06:14.837Z,181.38
2022-10-21T23:08:42.115Z,184.02
2022-10-21T23:11:09.669Z,183.65
2022-10-21T23:13:36.945Z,184.07
2022-10-21T23:16:04.534Z,144.73
2022-10-21T23:18:32.166Z,45.97
2022-10-21T23:20:59.448Z,23.67
2022-10-21T23:23:26.668Z,23.60
2022-10-21T23:25:54.095Z,47.10
2022-10-21T23:28:21.414Z,174.18
2022-10-21T23:30:49.204Z,182.13
2022-10-21T23:33:16.489Z,182.55
2022-10-21T23:35:43.879Z,182.25
2022-10-21T23:38:11.132Z,180.63
2022-10-21T23:40:38.812Z,183.82
2022-10-21T23:43:06.050Z,182.15
2022-10-21T23:45:34.063Z,181.90
2022-10-21T23:48:01.494Z,183.77
2022-10-21T23:50:28.855Z,180.73
2022-10-21T23:52:56.130Z,184.80
2022-10-21T23:55:23.577Z,185.02
2022-10-21T23:57:50.882Z,183.40
